createdAt,value
2022-10-18T06:40:38.081Z,9.55
2022-10-18T06:43:20.197Z,9.68
2022-10-18T06:45:48.363Z,10.05
2022-10-18T06:48:15.262Z,9.35
2022-10-18T06:50:41.817Z,9.70
2022-10-18T06:53:09.027Z,9.32
2022-10-18T06:55:36.169Z,8.70
2022-10-18T06:58:02.702Z,8.98
2022-10-18T07:00:29.241Z,9.25
2022-10-18T07:02:57.152Z,9.25
2022-10-18T07:05:23.905Z,8.98
2022-10-18T07:07:54.215Z,10.50
2022-10-18T07:10:25.182Z,10.48
2022-10-18T07:12:56.018Z,9.98
2022-10-18T07:15:29.971Z,10.50
2022-10-18T07:17:57.137Z,11.15
2022-10-18T07:20:23.640Z,10.52
2022-10-18T07:22:50.234Z,10.57
2022-10-18T07:25:16.763Z,10.10
2022-10-18T07:27:43.532Z,11.10
2022-10-18T07:30:11.207Z,11.02
2022-10-18T07:32:37.638Z,10.98
2022-10-18T07:35:04.592Z,10.65
2022-10-18T07:37:31.445Z,11.57
2022-10-18T07:39:58.090Z,10.80
2022-10-18T07:42:24.984Z,12.73
2022-10-18T07:44:51.465Z,11.70
2022-10-18T07:47:18.146Z,12.98
2022-10-18T07:49:44.670Z,12.93
2022-10-18T07:52:11.676Z,14.00
2022-10-18T07:54:38.184Z,12.38
2022-10-18T07:57:05.057Z,13.18
2022-10-18T07:59:31.462Z,13.05
2022-10-18T08:01:57.921Z,12.80
2022-10-18T08:04:24.478Z,12.70
2022-10-18T08:06:50.876Z,12.98
2022-10-18T08:09:17.492Z,12.63
2022-10-18T08:11:44.045Z,13.95
2022-10-18T08:14:10.554Z,12.35
2022-10-18T08:16:37.049Z,12.15
2022-10-18T08:19:04.412Z,12.38
2022-10-18T08:21:31.006Z,12.20
2022-10-18T08:23:57.517Z,12.75
2022-10-18T08:26:24.196Z,14.43
2022-10-18T08:28:58.171Z,12.98
2022-10-18T08:31:36.235Z,13.25
2022-10-18T08:34:02.702Z,13.30
2022-10-18T08:36:29.272Z,12.52
2022-10-18T08:38:55.681Z,13.18
2022-10-18T08:41:36.994Z,13.05
2022-10-18T08:44:25.325Z,14.25
2022-10-18T08:47:00.959Z,13.75
2022-10-18T08:49:47.259Z,13.07
2022-10-18T08:52:28.304Z,12.93
2022-10-18T08:55:05.184Z,12.77
2022-10-18T08:57:32.957Z,12.40
2022-10-18T08:59:59.753Z,12.02
2022-10-18T09:02:55.992Z,12.27
2022-10-18T09:05:51.287Z,12.77
2022-10-18T09:08:32.833Z,12.35
2022-10-18T09:11:38.278Z,11.57
2022-10-18T09:14:28.802Z,11.82
2022-10-18T09:17:17.783Z,12.00
2022-10-18T09:19:57.590Z,11.82
2022-10-18T09:22:38.829Z,10.85
2022-10-18T09:25:14.415Z,10.73
2022-10-18T09:27:52.549Z,10.02
2022-10-18T09:30:43.697Z,11.55
2022-10-18T09:33:29.282Z,11.07
2022-10-18T09:36:01.744Z,11.07
2022-10-18T09:38:33.064Z,11.75
2022-10-18T09:41:07.452Z,11.05
2022-10-18T09:43:52.758Z,11.05
2022-10-18T09:46:21.340Z,10.32
2022-10-18T09:49:03.413Z,10.48
2022-10-18T09:51:35.403Z,10.68
2022-10-18T09:54:27.691Z,10.52
2022-10-18T09:57:06.597Z,9.68
2022-10-18T09:59:40.450Z,10.13
2022-10-18T10:02:09.536Z,9.13
2022-10-18T10:04:35.964Z,9.35
2022-10-18T10:07:02.677Z,9.70
2022-10-18T10:09:36.476Z,9.88
2022-10-18T10:12:03.143Z,9.07
2022-10-18T10:14:30.675Z,9.82
2022-10-18T10:17:03.562Z,9.63
2022-10-18T10:19:34.925Z,8.77
2022-10-18T10:22:09.872Z,9.73
2022-10-18T10:24:39.288Z,9.50
2022-10-18T10:27:14.115Z,8.73
2022-10-18T10:29:48.519Z,8.73
2022-10-18T10:32:17.703Z,9.50
2022-10-18T10:34:45.153Z,8.60
2022-10-18T10:37:31.633Z,8.57
2022-10-18T10:40:23.064Z,7.93
2022-10-18T10:43:19.600Z,7.55
2022-10-18T10:46:15.192Z,7.45
2022-10-18T10:49:04.455Z,7.53
2022-10-18T10:51:41.055Z,7.20
2022-10-18T10:54:15.652Z,6.45
2022-10-18T10:57:02.184Z,6.95
2022-10-18T11:02:20.544Z,6.05
2022-10-18T11:04:55.355Z,5.60
2022-10-18T11:07:30.064Z,5.22
2022-10-18T11:10:05.657Z,5.25
2022-10-18T11:12:45.271Z,5.85
2022-10-18T11:15:12.033Z,5.00
2022-10-18T11:18:17.334Z,5.25
2022-10-18T11:21:25.779Z,5.50
2022-10-18T11:23:52.289Z,5.47
2022-10-18T11:26:30.811Z,4.72
2022-10-18T11:29:15.440Z,4.43
2022-10-18T11:31:59.905Z,3.85
2022-10-18T11:37:34.729Z,3.67
2022-10-18T11:40:41.742Z,3.30
2022-10-18T11:43:30.300Z,3.40
2022-10-18T11:46:21.620Z,3.63
2022-10-18T11:48:55.728Z,3.08
2022-10-18T11:51:34.339Z,2.90
2022-10-18T11:54:29.817Z,3.20
2022-10-18T11:57:17.595Z,3.10
2022-10-18T12:00:16.477Z,3.40
2022-10-18T12:03:15.291Z,3.10
2022-10-18T12:05:44.386Z,3.20
2022-10-18T12:08:42.724Z,3.97
2022-10-18T12:11:14.632Z,3.78
2022-10-18T12:13:52.427Z,4.28
2022-10-18T12:16:38.887Z,4.53
2022-10-18T12:19:23.495Z,4.35
2022-10-18T12:21:54.954Z,4.63
2022-10-18T12:24:25.983Z,4.20
2022-10-18T12:26:57.740Z,4.55
2022-10-18T15:14:16.267Z,2.90
2022-10-18T15:16:42.817Z,2.88
2022-10-18T15:19:15.037Z,2.70
2022-10-18T15:22:30.243Z,2.67
2022-10-18T15:25:05.311Z,2.92
2022-10-18T15:27:35.978Z,2.50
2022-10-18T15:30:21.731Z,2.60
2022-10-18T15:32:57.969Z,3.00
2022-10-18T15:35:33.136Z,2.60
2022-10-18T15:38:04.580Z,2.85
2022-10-18T15:40:36.042Z,2.65
2022-10-18T15:43:25.428Z,3.05
2022-10-18T15:46:00.260Z,2.85
2022-10-18T15:48:40.913Z,2.63
2022-10-18T15:51:48.574Z,2.58
2022-10-18T15:54:19.063Z,3.08
2022-10-18T15:56:45.798Z,3.03
2022-10-18T15:59:28.034Z,3.20
2022-10-18T16:01:54.911Z,2.22
2022-10-18T16:04:30.015Z,2.30
2022-10-18T16:06:57.886Z,2.35
2022-10-18T16:09:26.576Z,2.90
2022-10-18T16:11:56.945Z,2.85
2022-10-18T16:14:25.011Z,2.28
2022-10-18T16:16:54.883Z,2.40
2022-10-18T16:19:22.696Z,2.53
2022-10-18T16:21:49.912Z,2.63
2022-10-18T16:24:16.830Z,2.63
2022-10-18T16:26:43.296Z,2.55
2022-10-18T16:29:24.232Z,2.67
2022-10-18T16:31:53.366Z,2.40
2022-10-18T16:34:19.822Z,2.05
2022-10-18T16:36:46.202Z,2.28
2022-10-18T16:39:16.405Z,2.78
2022-10-18T16:41:43.199Z,2.67
2022-10-18T16:44:10.092Z,2.70
2022-10-18T16:46:37.007Z,3.33
2022-10-18T16:49:04.177Z,2.42
2022-10-18T16:51:30.642Z,2.63
2022-10-18T16:53:57.500Z,2.38
2022-10-18T16:56:30.581Z,2.78
2022-10-18T16:58:58.177Z,2.65
2022-10-18T17:01:25.898Z,2.55
2022-10-18T17:03:53.384Z,2.63
2022-10-18T17:06:29.442Z,3.05
2022-10-18T17:08:57.151Z,2.67
2022-10-18T17:11:26.724Z,2.60
2022-10-18T17:13:53.631Z,2.40
2022-10-18T17:16:30.838Z,2.95
2022-10-18T17:18:59.835Z,3.03
2022-10-18T17:21:28.177Z,2.65
2022-10-18T17:23:55.183Z,2.75
2022-10-18T17:26:29.066Z,3.00
2022-10-18T17:28:59.753Z,2.53
2022-10-18T17:31:26.645Z,2.17
2022-10-18T17:33:56.142Z,2.83
2022-10-18T17:36:22.638Z,2.55
2022-10-18T17:38:55.984Z,2.42
2022-10-18T17:41:22.879Z,2.60
2022-10-18T17:43:49.400Z,2.25
2022-10-18T17:46:17.644Z,2.50
2022-10-18T17:48:44.136Z,2.63
2022-10-18T17:51:12.447Z,2.70
2022-10-18T17:53:39.558Z,2.47
2022-10-18T17:56:07.595Z,2.22
2022-10-18T17:58:34.472Z,2.55
2022-10-18T18:01:12.668Z,2.67
2022-10-18T18:03:39.841Z,2.47
2022-10-18T18:06:23.983Z,2.35
2022-10-18T18:08:50.783Z,2.85
2022-10-18T18:11:17.810Z,2.00
2022-10-18T18:13:44.282Z,2.53
2022-10-18T18:16:11.965Z,2.70
2022-10-18T18:18:38.419Z,2.72
2022-10-18T18:21:04.944Z,2.40
2022-10-18T18:23:31.486Z,2.78
2022-10-18T18:25:58.286Z,2.03
2022-10-18T18:28:24.769Z,2.33
2022-10-18T18:30:51.338Z,2.53
2022-10-18T18:33:17.882Z,2.40
2022-10-18T18:35:44.386Z,2.38
2022-10-18T18:38:10.919Z,2.50
2022-10-18T18:40:37.390Z,2.83
2022-10-18T18:43:12.530Z,2.10
2022-10-18T18:45:52.123Z,2.38
2022-10-18T18:48:19.919Z,2.20
2022-10-18T18:50:50.504Z,2.45
2022-10-18T18:53:17.429Z,2.25
2022-10-18T18:55:43.999Z,2.35
2022-10-18T18:58:11.998Z,2.25
2022-10-18T19:00:43.423Z,2.50
2022-10-18T19:03:11.397Z,3.33
2022-10-18T19:05:37.968Z,2.70
2022-10-18T19:08:06.066Z,2.50
2022-10-18T19:10:32.821Z,2.38
2022-10-18T19:13:02.037Z,2.45
2022-10-18T19:15:28.463Z,2.92
2022-10-18T19:17:55.934Z,2.25
2022-10-18T19:20:22.438Z,2.70
2022-10-18T19:22:49.037Z,2.47
2022-10-18T19:25:15.499Z,2.40
2022-10-18T19:27:41.961Z,2.42
2022-10-18T19:30:09.711Z,2.20
2022-10-18T19:32:36.448Z,2.50
2022-10-18T19:35:03.586Z,2.70
2022-10-18T19:37:30.053Z,2.17
2022-10-18T19:39:56.505Z,2.10
2022-10-18T19:42:27.488Z,2.45
2022-10-18T19:44:56.938Z,2.65
2022-10-18T19:47:23.512Z,2.33
2022-10-18T19:49:50.248Z,2.30
2022-10-18T19:52:16.674Z,2.47
2022-10-18T19:54:44.871Z,2.08
2022-10-18T19:57:11.488Z,2.75
2022-10-18T19:59:38.451Z,2.55
2022-10-18T20:02:04.947Z,2.20
2022-10-18T20:04:34.509Z,2.20
2022-10-18T20:07:02.619Z,1.85
2022-10-18T20:09:29.223Z,2.35
2022-10-18T20:11:55.660Z,2.55
2022-10-18T20:14:22.210Z,2.38
2022-10-18T20:16:48.640Z,2.22
2022-10-18T20:19:15.085Z,2.13
2022-10-18T20:21:41.482Z,2.40
2022-10-18T20:24:09.362Z,2.17
2022-10-18T20:26:36.114Z,1.90
2022-10-18T20:29:03.786Z,2.13
2022-10-18T20:31:32.971Z,2.00
2022-10-18T20:34:02.154Z,2.30
2022-10-18T20:36:30.553Z,1.98
2022-10-18T20:38:57.439Z,2.35
2022-10-18T20:41:29.807Z,2.05
2022-10-18T20:43:59.074Z,2.28
2022-10-18T20:46:27.306Z,2.08
2022-10-18T20:54:57.410Z,1.90
2022-10-18T20:57:23.856Z,2.15
2022-10-18T20:59:50.298Z,2.00
2022-10-18T21:02:16.657Z,1.90
2022-10-18T21:04:43.037Z,2.03
2022-10-18T21:07:09.450Z,1.90
2022-10-18T21:09:35.883Z,2.42
2022-10-18T21:12:02.445Z,1.95
2022-10-18T21:14:29.087Z,2.03
2022-10-18T21:16:55.499Z,2.00
2022-10-18T21:19:24.617Z,1.85
2022-10-18T21:21:54.276Z,1.63
2022-10-18T21:24:23.221Z,1.92
2022-10-18T21:26:49.785Z,1.73
2022-10-18T21:29:21.545Z,2.55
2022-10-18T21:31:48.825Z,2.20
2022-10-18T21:34:17.299Z,2.03
2022-10-18T21:36:45.232Z,2.13
2022-10-18T21:39:15.032Z,1.85
2022-10-18T21:41:42.854Z,1.65
2022-10-18T21:44:11.163Z,2.22
2022-10-18T21:46:39.357Z,1.88
2022-10-18T21:49:06.944Z,2.15
2022-10-18T21:51:33.457Z,1.73
2022-10-18T21:53:59.839Z,1.98
2022-10-18T21:56:31.669Z,1.83
2022-10-18T21:58:58.305Z,2.00
2022-10-18T22:01:28.126Z,2.45
2022-10-18T22:03:56.489Z,2.10
2022-10-18T22:06:23.767Z,2.05
2022-10-18T22:08:52.454Z,2.15
2022-10-18T22:11:22.857Z,1.85
2022-10-18T22:13:49.517Z,1.85
2022-10-18T22:16:16.949Z,2.17
2022-10-18T22:18:44.777Z,2.05
2022-10-18T22:21:14.536Z,2.03
2022-10-18T22:23:46.918Z,1.88
2022-10-18T22:26:38.407Z,1.83
2022-10-18T22:29:11.426Z,1.80
2022-10-18T22:31:40.603Z,2.08
2022-10-18T22:34:11.458Z,1.98
2022-10-18T22:36:38.101Z,2.13
2022-10-18T22:39:08.485Z,1.98
2022-10-18T22:41:35.469Z,1.85
2022-10-18T22:44:03.992Z,1.98
2022-10-18T22:46:31.439Z,2.00
2022-10-18T22:48:57.856Z,1.90
2022-10-18T22:51:24.395Z,2.03
2022-10-18T22:53:50.912Z,2.00
2022-10-18T22:56:20.253Z,2.17
2022-10-18T22:58:48.055Z,2.10
2022-10-18T23:01:17.697Z,1.65
2022-10-18T23:03:44.458Z,1.60
2022-10-18T23:06:30.313Z,1.83
2022-10-18T23:08:58.417Z,1.90
2022-10-18T23:11:26.441Z,1.50
2022-10-18T23:13:53.119Z,1.70
2022-10-18T23:16:19.966Z,1.80
2022-10-18T23:18:54.927Z,2.00
2022-10-18T23:21:24.080Z,1.83
2022-10-18T23:23:51.385Z,1.85
2022-10-18T23:26:21.435Z,1.63
2022-10-18T23:28:49.608Z,1.77
2022-10-18T23:31:19.915Z,1.90
2022-10-18T23:33:48.413Z,1.90
2022-10-18T23:36:15.665Z,1.80
2022-10-18T23:38:42.574Z,2.00
2022-10-18T23:41:11.627Z,1.95
2022-10-18T23:43:38.470Z,1.98
2022-10-18T23:46:05.461Z,2.05
2022-10-18T23:48:32.165Z,1.90
2022-10-18T23:50:58.628Z,1.60
2022-10-18T23:53:26.547Z,1.75
2022-10-18T23:55:58.341Z,1.58
2022-10-18T23:58:26.089Z,2.10
